Time;durP1;ratioP1;P1;durP2;ratioP2;P2;SDS_P1;SDS_P2;PMS_P1;PMS_P2;Temp;Humidity;BMP_temperature;BMP_pressure;BME280_temperature;BME280_humidity;BME280_pressure;Samples;Min_cycle;Max_cycle;Signal;HPM_P1;HPM_P2
2023/06/24 00:02:08;;;;;;;10.75;9.65;;;;;;;26.14;62.66;101455.69;5052753;28;19959;-82
2023/06/24 00:04:34;;;;;;;12.55;9.70;;;;;;;26.18;62.77;101461.09;5057545;28;20024;-83
2023/06/24 00:07:00;;;;;;;;;;;;;;;26.22;62.40;101456.59;5059393;28;20031;-83
2023/06/24 00:09:29;;;;;;;12.38;9.45;;;;;;;26.04;62.67;101433.41;5074284;28;19920;-83
2023/06/24 00:11:58;;;;;;;14.88;10.10;;;;;;;26.14;62.75;101447.69;5048675;28;20104;-83
2023/06/24 00:14:26;;;;;;;10.98;9.60;;;;;;;26.19;62.49;101453.94;5066327;28;20084;-82
2023/06/24 00:16:52;;;;;;;11.65;9.23;;;;;;;26.15;62.53;101445.00;5075061;28;20031;-84
2023/06/24 00:19:22;;;;;;;10.73;9.63;;;;;;;26.19;62.73;101452.16;5059699;28;20037;-83
2023/06/24 00:21:51;;;;;;;11.35;9.48;;;;;;;26.20;62.70;101455.72;5071140;28;20067;-83
2023/06/24 00:24:19;;;;;;;12.00;9.95;;;;;;;26.18;62.60;101454.81;5048805;28;20037;-83
2023/06/24 00:26:46;;;;;;;11.45;9.45;;;;;;;26.14;62.69;101447.69;5056130;28;20032;-83
2023/06/24 00:29:12;;;;;;;11.30;9.88;;;;;;;26.10;62.48;101425.38;5072681;28;20503;-83
2023/06/24 00:31:38;;;;;;;13.15;10.13;;;;;;;26.00;62.91;101411.09;5056068;28;20052;-84
2023/06/24 00:34:04;;;;;;;;;;;;;;;26.19;62.49;101440.56;5062333;28;20066;-83
2023/06/24 00:36:31;;;;;;;10.88;9.30;;;;;;;26.15;62.37;101446.81;5057790;28;19923;-84
2023/06/24 00:39:00;;;;;;;11.30;9.95;;;;;;;26.14;62.70;101445.00;5033637;28;20141;-84
2023/06/24 00:41:26;;;;;;;10.88;9.45;;;;;;;26.06;62.31;101428.06;5055116;28;20039;-83
2023/06/24 00:43:52;;;;;;;;;;;;;;;26.18;62.29;101442.34;5047317;28;20546;-83
2023/06/24 00:46:19;;;;;;;12.45;9.27;;;;;;;25.78;62.65;101379.81;5067024;28;20016;-83
2023/06/24 00:48:45;;;;;;;10.93;9.77;;;;;;;25.92;62.75;101399.50;5041563;28;20029;-84
2023/06/24 00:51:10;;;;;;;;;;;;;;;26.14;62.28;101445.91;5035741;28;20031;-84
2023/06/24 00:53:36;;;;;;;11.82;9.90;;;;;;;26.05;62.68;101428.94;5059603;28;19952;-84
2023/06/24 00:56:02;;;;;;;9.95;8.95;;;;;;;25.95;62.65;101415.56;5066786;28;20035;-83
2023/06/24 00:58:30;;;;;;;;;;;;;;;26.13;62.48;101436.09;5045064;28;20515;-83
2023/06/24 01:00:57;;;;;;;11.23;9.00;;;;;;;26.05;62.52;101429.81;5061788;28;19924;-83
2023/06/24 01:03:26;;;;;;;10.20;8.63;;;;;;;26.09;62.79;101434.28;5051188;28;20025;-83
2023/06/24 01:05:54;;;;;;;11.10;9.00;;;;;;;25.89;62.61;101401.28;5045494;28;20149;-83
2023/06/24 01:08:22;;;;;;;10.85;8.93;;;;;;;26.10;62.46;101429.81;5038060;28;20020;-83
2023/06/24 01:10:51;;;;;;;9.77;8.77;;;;;;;26.05;62.86;101427.16;5038364;28;20714;-83
2023/06/24 01:13:17;;;;;;;10.55;9.32;;;;;;;26.07;62.56;101432.50;5041339;28;20122;-84
2023/06/24 01:15:43;;;;;;;;;;;;;;;26.10;62.41;101424.47;5045875;28;20108;-85
2023/06/24 01:18:34;;;;;;;11.40;8.88;;;;;;;25.84;62.49;101385.16;5060769;28;20303;-85
2023/06/24 01:21:15;;;;;;;9.25;8.35;;;;;;;26.06;62.38;101430.75;5054378;28;20033;-84
2023/06/24 01:23:40;;;;;;;11.30;8.85;;;;;;;26.05;62.32;101423.59;5070946;28;20033;-84
2023/06/24 01:26:13;;;;;;;;;;;;;;;26.07;62.40;101420.00;5072653;28;20032;-84
2023/06/24 01:29:03;;;;;;;9.90;8.90;;;;;;;26.04;62.74;101411.13;5074415;28;19916;-84
2023/06/24 01:31:41;;;;;;;10.32;8.52;;;;;;;26.03;62.67;101420.00;5047983;28;20526;-84
2023/06/24 01:34:12;;;;;;;10.55;8.68;;;;;;;26.00;62.75;101419.13;5057490;28;20094;-83
2023/06/24 01:36:40;;;;;;;10.18;8.80;;;;;;;25.99;62.59;101417.34;5063472;28;20550;-84
2023/06/24 01:39:09;;;;;;;10.73;8.77;;;;;;;25.98;62.99;101417.34;5046403;28;20027;-83
2023/06/24 01:41:51;;;;;;;12.38;8.98;;;;;;;25.94;62.47;101407.53;5042291;28;20479;-84
2023/06/24 01:44:18;;;;;;;9.95;8.95;;;;;;;25.96;62.51;101411.09;5044280;28;20025;-83
2023/06/24 01:46:46;;;;;;;9.90;8.90;;;;;;;25.96;62.57;101408.41;5039084;28;20025;-83
2023/06/24 01:49:13;;;;;;;9.43;8.52;;;;;;;25.97;62.50;101402.16;5054782;28;20040;-84
2023/06/24 01:51:40;;;;;;;9.68;8.48;;;;;;;25.76;62.28;101362.88;5053226;28;20033;-83
2023/06/24 01:54:11;;;;;;;9.85;8.85;;;;;;;25.97;62.57;101403.06;5061786;28;20028;-84
2023/06/24 01:56:38;;;;;;;9.23;8.32;;;;;;;25.79;62.52;101366.44;5078376;28;20025;-83
2023/06/24 01:59:04;;;;;;;9.48;8.57;;;;;;;25.78;62.44;101369.09;5037004;28;20051;-84
2023/06/24 02:01:32;;;;;;;9.10;8.20;;;;;;;25.95;62.56;101406.63;5070068;28;20107;-84
2023/06/24 02:03:59;;;;;;;11.15;9.07;;;;;;;25.94;62.38;101396.81;5058979;28;20031;-84
2023/06/24 02:06:26;;;;;;;9.50;8.60;;;;;;;25.93;62.59;101392.34;5054276;28;20100;-84
2023/06/24 02:08:53;;;;;;;10.27;8.90;;;;;;;25.82;62.35;101383.38;5046163;28;20028;-83
2023/06/24 02:11:21;;;;;;;9.60;8.70;;;;;;;25.92;62.55;101401.28;5039914;28;20033;-84
2023/06/24 02:13:48;;;;;;;9.07;8.18;;;;;;;25.81;62.46;101387.84;5049738;28;20148;-84
2023/06/24 02:16:14;;;;;;;8.63;7.72;;;;;;;25.80;62.24;101388.72;5064824;28;20438;-84
2023/06/24 02:18:43;;;;;;;9.30;8.40;;;;;;;25.91;62.05;101407.53;5072227;28;20020;-84
2023/06/24 02:21:09;;;;;;;8.93;8.02;;;;;;;25.83;62.43;101395.91;5067172;28;20036;-82
2023/06/24 02:23:36;;;;;;;9.10;8.20;;;;;;;25.72;62.29;101390.53;5049445;28;20100;-83
2023/06/24 02:26:03;;;;;;;9.20;8.30;;;;;;;25.88;62.37;101421.75;5057669;28;21303;-83
2023/06/24 02:28:29;;;;;;;9.63;8.63;;;;;;;25.87;62.56;101422.66;5059106;28;20032;-84
2023/06/24 02:30:55;;;;;;;8.50;7.70;;;;;;;25.86;62.45;101415.50;5031240;28;20064;-83
2023/06/24 02:33:21;;;;;;;;;;;;;;;25.88;62.40;101419.06;5065121;28;20044;-84
2023/06/24 02:35:46;;;;;;;9.88;8.07;;;;;;;25.84;62.06;101413.72;5078424;28;20398;-84
2023/06/24 02:38:12;;;;;;;;;;;;;;;25.86;62.26;101423.53;5058113;28;20486;-83
2023/06/24 02:40:37;;;;;;;9.30;7.78;;;;;;;25.78;62.25;101418.19;5049388;28;20487;-83
2023/06/24 02:43:04;;;;;;;8.77;7.93;;;;;;;25.74;62.25;101410.16;5047446;28;20040;-83
2023/06/24 02:45:30;;;;;;;8.90;7.70;;;;;;;25.83;62.09;101425.31;5063578;28;20419;-84
2023/06/24 02:47:55;;;;;;;;;;;;;;;25.84;62.01;101422.63;5050402;28;20032;-84
2023/06/24 02:50:21;;;;;;;8.93;7.90;;;;;;;25.43;61.92;101364.63;5049006;28;19951;-84
2023/06/24 02:52:47;;;;;;;;;;;;;;;25.83;62.21;101433.34;5071148;28;20024;-83
2023/06/24 02:55:13;;;;;;;9.10;8.20;;;;;;;25.79;62.29;101441.34;5070051;28;19916;-84
2023/06/24 02:57:40;;;;;;;8.93;8.02;;;;;;;25.77;62.06;101435.13;5043943;28;20097;-84
2023/06/24 03:00:11;;;;;;;8.80;7.90;;;;;;;25.55;61.85;101398.53;5064911;28;20115;-84
2023/06/24 03:02:38;;;;;;;9.13;8.23;;;;;;;25.79;62.06;101427.09;5050862;28;20496;-84
2023/06/24 03:05:05;;;;;;;8.80;7.90;;;;;;;25.50;62.13;101378.88;5045293;28;20059;-83
2023/06/24 03:07:30;;;;;;;8.68;7.75;;;;;;;25.59;62.01;101397.66;5050705;28;20116;-84
2023/06/24 03:09:56;;;;;;;;;;;;;;;25.79;61.83;101430.66;5045169;28;20115;-84
2023/06/24 03:12:21;;;;;;;8.75;7.85;;;;;;;25.76;61.88;101432.41;5064321;28;19916;-84
2023/06/24 03:14:47;;;;;;;9.73;8.38;;;;;;;25.72;62.20;101426.19;5064613;28;20402;-84
2023/06/24 03:17:12;;;;;;;;;;;;;;;25.75;62.11;101427.97;5036343;28;20082;-84
2023/06/24 03:19:38;;;;;;;9.18;8.27;;;;;;;25.73;62.06;101427.09;5061842;28;20462;-84
2023/06/24 03:22:04;;;;;;;8.70;7.80;;;;;;;25.70;61.99;101436.00;5059872;28;20029;-83
2023/06/24 03:24:29;;;;;;;9.70;8.27;;;;;;;25.38;61.78;101377.97;5068554;28;20107;-83
2023/06/24 03:26:56;;;;;;;;;;;;;;;25.73;62.05;101445.81;5076050;28;20569;-81
2023/06/24 03:29:25;;;;;;;8.60;7.80;;;;;;;25.62;61.77;101429.75;5067054;28;19916;-83
2023/06/24 03:31:51;;;;;;;9.85;8.23;;;;;;;25.25;61.61;101380.59;5047516;28;20040;-82
2023/06/24 03:34:16;;;;;;;;;;;;;;;25.73;61.89;101469.88;5072046;28;20036;-82
2023/06/24 03:36:43;;;;;;;8.63;7.82;;;;;;;25.67;61.94;101464.53;5058960;28;19948;-82
2023/06/24 03:39:08;;;;;;;8.60;7.80;;;;;;;25.66;61.69;101468.97;5065114;28;20492;-82
2023/06/24 03:41:34;;;;;;;;;;;;;;;25.67;61.69;101467.19;5068654;28;20036;-82
2023/06/24 03:44:00;;;;;;;8.98;7.57;;;;;;;25.65;61.85;101469.84;5056064;28;19924;-83
2023/06/24 03:46:26;;;;;;;8.77;7.70;;;;;;;25.53;61.91;101449.34;5064965;28;20021;-83
2023/06/24 03:48:51;;;;;;;;;;;;;;;25.65;61.70;101467.19;5065111;28;20942;-82
2023/06/24 03:51:17;;;;;;;8.90;8.00;;;;;;;25.39;61.47;101430.56;5065414;28;20330;-83
2023/06/24 03:53:42;;;;;;;;;;;;;;;25.65;61.77;101471.66;5065048;28;20025;-81
2023/06/24 03:56:08;;;;;;;9.20;7.88;;;;;;;25.57;61.59;101469.84;5069988;28;19920;-82
2023/06/24 03:58:33;;;;;;;;;;;;;;;25.64;61.52;101486.81;5065289;28;20040;-82
2023/06/24 04:01:00;;;;;;;8.30;7.47;;;;;;;25.55;61.93;101473.41;5068281;28;19920;-82
2023/06/24 04:03:26;;;;;;;9.38;8.10;;;;;;;25.55;61.70;101474.31;5048245;28;20028;-82
2023/06/24 04:05:54;;;;;;;;;;;;;;;25.62;61.41;101475.22;5069270;28;20029;-83
2023/06/24 04:08:21;;;;;;;9.45;7.75;;;;;;;25.61;61.51;101478.75;5068914;28;19916;-82
2023/06/24 04:10:46;;;;;;;10.85;8.15;;;;;;;25.59;61.45;101485.91;5065895;28;20060;-84
2023/06/24 04:13:12;;;;;;;;;;;;;;;25.62;61.56;101482.34;5060550;28;20036;-83
2023/06/24 04:15:37;;;;;;;8.73;7.72;;;;;;;25.12;61.66;101404.56;5062370;28;19920;-84
2023/06/24 04:18:03;;;;;;;;;;;;;;;25.58;61.77;101481.44;5056411;28;20028;-82
2023/06/24 04:20:28;;;;;;;8.68;7.85;;;;;;;25.53;61.84;101483.22;5064369;28;19917;-83
2023/06/24 04:22:54;;;;;;;;;;;;;;;25.54;61.59;101491.22;5062565;28;20457;-83
2023/06/24 04:25:20;;;;;;;9.30;8.02;;;;;;;25.05;61.62;101410.78;5065778;28;20502;-83
2023/06/24 04:27:45;;;;;;;8.70;7.82;;;;;;;25.46;61.90;101471.56;5069517;28;20024;-82
2023/06/24 04:30:11;;;;;;;;;;;;;;;25.51;61.74;101485.00;5068906;28;20036;-83
2023/06/24 04:32:37;;;;;;;7.93;7.20;;;;;;;25.36;61.94;101469.78;5064451;28;19920;-83
2023/06/24 04:35:04;;;;;;;;;;;;;;;25.51;61.64;101485.00;5079404;28;20024;-83
2023/06/24 04:37:29;;;;;;;8.35;7.45;;;;;;;25.47;61.59;101485.88;5071212;28;19920;-84
2023/06/24 04:39:55;;;;;;;;;;;;;;;25.52;61.56;101490.31;5076862;28;20020;-83
2023/06/24 04:42:22;;;;;;;9.73;8.05;;;;;;;25.49;61.68;101486.75;5062571;28;19916;-82
2023/06/24 04:44:50;;;;;;;11.55;8.35;;;;;;;25.31;61.87;101472.41;5049783;28;20099;-82
2023/06/24 04:47:19;;;;;;;8.88;7.97;;;;;;;25.20;61.73;101463.44;5069955;28;20671;-83
2023/06/24 04:49:45;;;;;;;9.30;8.15;;;;;;;25.44;62.13;101510.78;5053799;28;20029;-81
2023/06/24 04:52:11;;;;;;;;;;;;;;;25.51;61.79;101509.94;5066077;28;20158;-82
2023/06/24 04:54:36;;;;;;;9.20;7.78;;;;;;;25.43;61.70;101497.44;5068209;28;19917;-84
2023/06/24 04:57:02;;;;;;;;;;;;;;;25.48;61.81;101501.00;5050814;28;20615;-82
2023/06/24 04:59:28;;;;;;;9.23;7.68;;;;;;;25.39;61.99;101496.50;5069756;28;20502;-82
2023/06/24 05:01:53;;;;;;;;;;;;;;;25.48;61.62;101501.91;5070992;28;20488;-83
2023/06/24 05:04:19;;;;;;;9.18;8.10;;;;;;;25.45;61.92;101509.91;5062151;28;20441;-83
2023/06/24 05:06:44;;;;;;;;;;;;;;;25.46;61.39;101518.81;5071752;28;20438;-83
2023/06/24 05:09:14;;;;;;;8.45;7.65;;;;;;;25.40;61.56;101509.00;5054649;28;19929;-84
2023/06/24 05:11:41;;;;;;;8.35;7.28;;;;;;;25.30;61.65;101500.03;5068390;28;20036;-83
2023/06/24 05:14:07;;;;;;;8.00;7.20;;;;;;;25.41;61.53;101515.25;5039029;28;20028;-83
2023/06/24 05:16:32;;;;;;;7.82;7.13;;;;;;;25.42;61.59;101509.91;5066928;28;20059;-82
2023/06/24 05:18:58;;;;;;;;;;;;;;;25.47;61.52;101510.81;5050741;28;20060;-83
2023/06/24 05:21:23;;;;;;;8.25;7.22;;;;;;;25.46;61.35;101516.16;5068334;28;19920;-84
2023/06/24 05:23:49;;;;;;;;;;;;;;;25.48;61.56;101527.75;5056530;28;20039;-83
2023/06/24 05:26:15;;;;;;;7.55;6.85;;;;;;;25.46;61.33;101514.38;5078080;28;20379;-81
2023/06/24 05:28:40;;;;;;;;;;;;;;;25.49;61.31;101514.41;5075110;28;20039;-83
2023/06/24 05:31:06;;;;;;;7.90;7.10;;;;;;;25.29;61.92;101482.19;5068659;28;20628;-83
2023/06/24 05:33:32;;;;;;;;;;;;;;;25.46;61.78;101521.50;5064575;28;20090;-86
2023/06/24 05:35:58;;;;;;;8.70;7.33;;;;;;;25.31;61.78;101495.59;5061292;28;19923;-83
2023/06/24 05:38:23;;;;;;;;;;;;;;;25.49;61.63;101513.50;5060911;28;20460;-83
2023/06/24 05:40:49;;;;;;;7.57;6.88;;;;;;;25.26;61.71;101478.63;5075293;28;19958;-81
2023/06/24 05:43:14;;;;;;;;;;;;;;;25.48;61.71;101509.91;5063044;28;20036;-82
2023/06/24 05:45:40;;;;;;;7.50;6.78;;;;;;;25.38;61.58;101492.06;5061496;28;19994;-83
2023/06/24 05:48:05;;;;;;;;;;;;;;;25.48;61.80;101512.59;5062395;28;20046;-83
2023/06/24 05:50:31;;;;;;;8.60;7.38;;;;;;;25.43;62.07;101502.78;5067584;28;19981;-82
2023/06/24 05:52:57;;;;;;;;;;;;;;;25.49;62.62;101511.72;5067974;28;20054;-83
2023/06/24 05:55:23;;;;;;;8.35;7.43;;;;;;;25.42;62.29;101506.31;5050335;28;19920;-82
2023/06/24 05:57:48;;;;;;;;;;;;;;;25.47;62.28;101505.47;5069848;28;20036;-84
2023/06/24 06:00:14;;;;;;;7.70;6.90;;;;;;;25.45;61.96;101503.69;5058632;28;20347;-81
2023/06/24 06:02:40;;;;;;;7.50;6.78;;;;;;;25.45;61.96;101509.91;5068428;28;20111;-82
2023/06/24 06:05:06;;;;;;;7.40;6.70;;;;;;;25.38;61.66;101502.75;5067080;28;20458;-83
2023/06/24 06:07:31;;;;;;;;;;;;;;;25.46;62.06;101527.72;5064078;28;20500;-82
2023/06/24 06:09:57;;;;;;;7.95;6.95;;;;;;;25.46;61.76;101510.81;5068758;28;19916;-83
2023/06/24 06:12:22;;;;;;;;;;;;;;;25.45;61.73;101515.25;5070789;28;20482;-82
2023/06/24 06:14:48;;;;;;;7.93;7.18;;;;;;;25.44;62.06;101507.22;5066179;28;19920;-82
2023/06/24 06:17:14;;;;;;;10.60;6.95;;;;;;;25.51;62.51;101511.72;5062633;28;20041;-80
2023/06/24 06:19:41;;;;;;;14.20;8.73;;;;;;;25.45;63.97;101504.56;5034474;28;20173;-83
2023/06/24 06:22:07;;;;;;;14.38;7.40;;;;;;;25.47;62.35;101486.75;5051175;28;20028;-81
2023/06/24 06:24:33;;;;;;;11.73;8.15;;;;;;;25.45;62.16;101507.25;5066733;28;20099;-82
2023/06/24 06:26:59;;;;;;;;;;;;;;;25.41;61.79;101508.13;5074800;28;20028;-82
2023/06/24 06:29:25;;;;;;;11.52;7.13;;;;;;;25.39;61.06;101494.72;5063983;28;19916;-83
2023/06/24 06:31:50;;;;;;;;;;;;;;;25.49;60.36;101502.81;5050157;28;20040;-82
2023/06/24 06:34:16;;;;;;;10.98;7.05;;;;;;;25.53;59.32;101497.47;5068576;28;19920;-82
2023/06/24 06:36:41;;;;;;;;;;;;;;;25.59;59.45;101497.50;5064529;28;20048;-84
2023/06/24 06:39:07;;;;;;;8.95;7.03;;;;;;;25.62;58.80;101509.09;5046814;28;19973;-83
2023/06/24 06:41:32;;;;;;;;;;;;;;;25.70;58.46;101507.34;5065950;28;20178;-83
2023/06/24 06:43:58;;;;;;;10.63;6.68;;;;;;;25.68;58.25;101493.97;5037998;28;19931;-83
2023/06/24 06:46:23;;;;;;;;;;;;;;;25.79;57.93;101492.19;5066003;28;20392;-84
2023/06/24 06:48:49;;;;;;;7.65;6.35;;;;;;;25.88;57.53;101494.00;5063201;28;19913;-84
2023/06/24 06:51:15;;;;;;;;;;;;;;;25.89;56.99;101500.31;5051118;28;20025;-83
2023/06/24 06:53:40;;;;;;;6.93;5.95;;;;;;;25.94;56.64;101496.72;5058909;28;19923;-82
2023/06/24 06:56:06;;;;;;;7.05;6.35;;;;;;;25.72;56.42;101441.38;5066470;28;20033;-82
2023/06/24 06:58:33;;;;;;;;;;;;;;;25.98;56.24;101485.13;5069447;28;20425;-81
2023/06/24 07:01:01;;;;;;;6.55;5.75;;;;;;;26.04;55.68;101488.72;5030111;28;20379;-82
2023/06/24 07:03:28;;;;;;;8.30;6.20;;;;;;;25.84;55.58;101454.75;5064937;28;20028;-81
2023/06/24 07:05:53;;;;;;;7.95;5.75;;;;;;;25.77;55.57;101436.91;5033929;28;20025;-82
2023/06/24 07:08:19;;;;;;;;;;;;;;;26.13;54.91;101491.41;5059556;28;20024;-81
2023/06/24 07:10:44;;;;;;;6.13;5.53;;;;;;;26.19;54.70;101495.00;5057870;28;19916;-81
2023/06/24 07:13:10;;;;;;;6.50;5.65;;;;;;;25.97;54.84;101466.38;5064897;28;20029;-81
2023/06/24 07:15:36;;;;;;;6.93;5.78;;;;;;;26.10;55.03;101496.75;5058432;28;20491;-81
2023/06/24 07:18:01;;;;;;;;;;;;;;;26.09;54.79;101492.28;5061254;28;20020;-81
2023/06/24 07:20:27;;;;;;;7.35;5.78;;;;;;;26.09;54.37;101489.63;5066383;28;20379;-82
2023/06/24 07:22:52;;;;;;;;;;;;;;;26.19;54.41;101495.00;5054240;28;20029;-81
2023/06/24 07:25:18;;;;;;;6.60;5.50;;;;;;;26.16;54.17;101497.69;5051567;28;19920;-81
2023/06/24 07:27:43;;;;;;;;;;;;;;;26.15;54.11;101497.66;5069993;28;20024;-81
2023/06/24 07:30:09;;;;;;;6.18;5.57;;;;;;;26.14;54.11;101503.88;5067937;28;19916;-82
2023/06/24 07:32:35;;;;;;;;;;;;;;;26.26;53.50;101503.03;5055412;28;20085;-82
2023/06/24 07:35:00;;;;;;;7.05;5.47;;;;;;;26.17;53.38;101480.69;5059355;28;20011;-82
2023/06/24 07:37:25;;;;;;;;;;;;;;;26.25;53.41;101507.50;5060364;28;20041;-82
2023/06/24 07:39:51;;;;;;;6.13;5.18;;;;;;;26.17;53.42;101487.84;5065205;28;19912;-83
2023/06/24 07:42:18;;;;;;;5.88;5.28;;;;;;;26.25;53.55;101506.63;5041945;28;20083;-83
2023/06/24 07:44:47;;;;;;;5.30;4.80;;;;;;;26.31;53.24;101504.81;5053840;28;20025;-81
2023/06/24 07:47:13;;;;;;;5.90;5.15;;;;;;;26.35;52.76;101481.59;5043592;28;20040;-81
2023/06/24 07:49:39;;;;;;;;;;;;;;;26.37;52.66;101504.84;5055556;28;21003;-83
2023/06/24 07:52:06;;;;;;;5.47;4.93;;;;;;;26.13;52.77;101470.88;5049943;28;19913;-82
2023/06/24 07:54:32;;;;;;;5.35;4.80;;;;;;;26.33;52.40;101473.59;5037023;28;20470;-83
2023/06/24 07:56:57;;;;;;;5.57;4.70;;;;;;;26.46;52.22;101486.94;5052471;28;20093;-83
2023/06/24 07:59:24;;;;;;;;;;;;;;;26.52;52.23;101505.69;5024520;28;20472;-82
2023/06/24 08:01:49;;;;;;;5.90;4.67;;;;;;;26.54;52.05;101501.25;5064506;28;19916;-83
2023/06/24 08:04:15;;;;;;;6.22;4.75;;;;;;;26.36;52.40;101478.94;5070334;28;20025;-83
2023/06/24 08:06:41;;;;;;;5.65;5.03;;;;;;;26.08;52.32;101451.25;5058885;28;20480;-82
2023/06/24 08:09:07;;;;;;;;;;;;;;;26.42;52.32;101499.47;5054327;28;20119;-82
2023/06/24 08:11:33;;;;;;;5.93;4.75;;;;;;;26.31;52.09;101480.72;5054514;28;19912;-82
2023/06/24 08:13:58;;;;;;;6.00;4.90;;;;;;;26.56;51.89;101497.72;5067113;28;20038;-82
2023/06/24 08:16:24;;;;;;;5.60;4.60;;;;;;;26.49;51.72;101497.69;5044656;28;20106;-82
2023/06/24 08:18:49;;;;;;;5.00;4.50;;;;;;;26.46;51.72;101503.94;5049563;28;20402;-81
2023/06/24 08:21:15;;;;;;;5.43;4.80;;;;;;;26.46;51.60;101481.59;5067181;28;20178;-81
2023/06/24 08:23:41;;;;;;;;;;;;;;;26.55;51.81;101498.56;5057434;28;20024;-81
2023/06/24 08:26:07;;;;;;;5.88;4.57;;;;;;;26.49;51.56;101493.22;5045619;28;20395;-81
2023/06/24 08:28:46;;;;;;;6.43;5.00;;;;;;;26.47;51.92;101489.63;5066645;28;20025;-81
2023/06/24 08:31:12;;;;;;;5.50;4.75;;;;;;;26.32;51.78;101462.88;5070573;28;20051;-81
2023/06/24 08:33:57;;;;;;;;;;;;;;;26.49;51.52;101495.00;5027621;28;20048;-82
2023/06/24 08:36:23;;;;;;;5.85;4.13;;;;;;;26.48;51.62;101490.53;5035333;28;20013;-83
2023/06/24 08:38:49;;;;;;;4.80;4.40;;;;;;;26.41;51.27;101476.25;5044011;28;20024;-83
2023/06/24 08:41:15;;;;;;;;;;;;;;;26.54;51.16;101495.88;5050636;28;20032;-83
2023/06/24 08:43:40;;;;;;;5.93;4.70;;;;;;;26.44;51.27;101488.75;5032197;28;19913;-82
2023/06/24 08:46:15;;;;;;;;;;;;;;;26.57;51.12;101496.81;5035456;28;20511;-82
2023/06/24 08:48:45;;;;;;;5.75;4.80;;;;;;;26.59;51.40;101502.19;5039923;28;19924;-82
2023/06/24 08:51:15;;;;;;;5.72;4.55;;;;;;;26.56;51.05;101503.09;5043220;28;20044;-82
2023/06/24 08:53:46;;;;;;;5.57;4.45;;;;;;;26.54;50.79;101493.19;5039691;28;20540;-81
2023/06/24 08:56:12;;;;;;;5.57;4.82;;;;;;;26.59;50.86;101511.09;5046548;28;20028;-83
2023/06/24 08:58:37;;;;;;;;;;;;;;;26.62;50.81;101512.00;5050438;28;20051;-83
2023/06/24 09:01:11;;;;;;;5.75;4.40;;;;;;;26.64;50.86;101511.09;5046789;28;19963;-83
2023/06/24 09:03:37;;;;;;;5.75;4.65;;;;;;;26.32;50.50;101450.38;5017237;28;20029;-82
2023/06/24 09:06:03;;;;;;;6.43;4.40;;;;;;;26.64;50.59;101507.53;5020410;28;20041;-83
2023/06/24 09:08:28;;;;;;;;;;;;;;;26.66;50.61;101503.06;5038738;28;20028;-83
2023/06/24 09:11:03;;;;;;;5.85;4.43;;;;;;;26.66;50.31;101508.44;5034400;28;19940;-82
2023/06/24 09:13:38;;;;;;;4.97;4.20;;;;;;;26.56;50.05;101488.75;5042028;28;20037;-83
2023/06/24 09:16:21;;;;;;;4.93;4.43;;;;;;;26.66;50.07;101503.06;5038570;28;20087;-82
2023/06/24 09:18:53;;;;;;;5.40;4.68;;;;;;;26.28;50.15;101428.94;5047033;28;20564;-81
2023/06/24 09:21:38;;;;;;;5.47;4.80;;;;;;;26.60;49.85;101488.75;5040401;28;20499;-81
2023/06/24 09:24:07;;;;;;;5.05;4.43;;;;;;;26.68;50.08;101487.88;5042556;28;20017;-81
2023/06/24 09:26:33;;;;;;;5.20;4.60;;;;;;;26.48;49.79;101451.25;5049136;28;20037;-81
2023/06/24 09:29:04;;;;;;;;;;;;;;;26.77;49.96;101506.63;5048668;28;20033;-82
2023/06/24 09:31:32;;;;;;;5.38;4.35;;;;;;;26.74;49.76;101501.28;5046869;28;20055;-82
2023/06/24 09:34:03;;;;;;;4.88;4.38;;;;;;;26.72;49.79;101492.34;5050419;28;20032;-82
2023/06/24 09:36:29;;;;;;;5.22;4.50;;;;;;;26.51;49.55;101453.03;5055888;28;20492;-82
2023/06/24 09:38:57;;;;;;;;;;;;;;;26.86;49.60;101503.03;5064969;28;20020;-83
2023/06/24 09:41:31;;;;;;;6.13;4.68;;;;;;;26.77;49.40;101494.09;5070974;28;19995;-82
2023/06/24 09:44:09;;;;;;;;;;;;;;;;;;;;;
2023/06/24 09:46:36;;;;;;;5.22;4.40;;;;;;;26.52;49.39;101436.97;5057438;28;20025;-82
2023/06/24 09:49:01;;;;;;;5.50;4.40;;;;;;;26.63;49.25;101455.75;5046453;28;20074;-81
2023/06/24 09:51:27;;;;;;;4.97;4.35;;;;;;;26.81;49.00;101485.16;5069679;28;20032;-83
2023/06/24 09:53:53;;;;;;;;;;;;;;;26.93;49.16;101499.47;5070856;28;20028;-83
2023/06/24 09:56:19;;;;;;;5.18;4.65;;;;;;;26.68;48.97;101450.38;5062492;28;20007;-81
2023/06/24 09:58:47;;;;;;;5.15;4.43;;;;;;;26.80;48.94;101466.44;5062242;28;20029;-82
2023/06/24 10:01:13;;;;;;;5.18;4.38;;;;;;;26.36;49.04;101392.34;5049393;28;20040;-82
2023/06/24 10:03:39;;;;;;;5.05;4.13;;;;;;;26.66;49.12;101444.13;5028634;28;20082;-82
2023/06/24 10:06:06;;;;;;;5.20;4.70;;;;;;;26.93;49.30;101476.22;5028322;28;20035;-81
2023/06/24 10:08:32;;;;;;;6.35;4.53;;;;;;;27.02;48.76;101483.34;5041376;28;20565;-83
2023/06/24 10:11:01;;;;;;;5.35;4.85;;;;;;;27.06;48.69;101485.13;5065919;28;20432;-81
2023/06/24 10:13:27;;;;;;;5.03;4.40;;;;;;;26.78;48.86;101436.94;5065674;28;20032;-82
2023/06/24 10:15:55;;;;;;;4.82;4.20;;;;;;;26.96;48.56;101473.53;5047832;28;20043;-82
2023/06/24 10:18:38;;;;;;;5.13;4.28;;;;;;;26.82;48.64;101445.88;5065826;28;20094;-81
2023/06/24 10:21:07;;;;;;;5.00;4.50;;;;;;;27.03;48.47;101479.78;5066865;28;20036;-82
2023/06/24 10:23:54;;;;;;;6.75;4.57;;;;;;;27.18;48.37;101484.22;5032177;28;20398;-82
2023/06/24 10:26:28;;;;;;;4.60;4.18;;;;;;;27.13;48.57;101480.63;5048531;28;20093;-81
2023/06/24 10:29:06;;;;;;;6.45;4.25;;;;;;;27.21;48.31;101482.38;5047832;28;20040;-80
2023/06/24 10:31:40;;;;;;;6.45;4.90;;;;;;;27.17;48.54;101487.78;5042426;28;20033;-80
2023/06/24 10:34:28;;;;;;;6.05;4.30;;;;;;;27.23;48.05;101476.19;5041934;28;20112;-83
2023/06/24 10:36:55;;;;;;;5.03;4.20;;;;;;;27.11;48.27;101452.94;5049717;28;20128;-82
2023/06/24 10:39:58;;;;;;;6.13;4.70;;;;;;;27.21;48.39;101462.72;5042991;28;20502;-81
2023/06/24 10:42:26;;;;;;;7.43;5.00;;;;;;;27.29;47.99;101465.44;5032604;28;20112;-83
2023/06/24 10:44:53;;;;;;;6.38;4.45;;;;;;;27.25;48.02;101464.53;5043606;28;20029;-81
2023/06/24 10:47:25;;;;;;;5.93;4.55;;;;;;;27.34;47.83;101467.16;5033372;28;20163;-82
2023/06/24 10:49:51;;;;;;;7.60;4.85;;;;;;;27.31;48.10;101467.19;5042865;28;20114;-82
2023/06/24 10:52:21;;;;;;;7.20;5.00;;;;;;;27.22;48.29;101448.47;5047864;28;20513;-81
2023/06/24 10:54:47;;;;;;;10.15;5.38;;;;;;;27.15;48.17;101430.56;5049201;28;20025;-81
2023/06/24 10:57:12;;;;;;;11.57;5.75;;;;;;;27.27;47.91;101437.72;5049208;28;20040;-82
2023/06/24 10:59:42;;;;;;;10.75;5.45;;;;;;;27.17;47.80;101410.00;5046779;28;20086;-82
2023/06/24 11:02:12;;;;;;;13.75;6.15;;;;;;;27.31;47.95;101434.13;5037503;28;20059;-82
2023/06/24 11:04:45;;;;;;;13.90;5.72;;;;;;;27.37;48.15;101442.16;5034394;28;20033;-82
2023/06/24 11:07:11;;;;;;;15.43;6.05;;;;;;;27.42;48.13;101460.00;5038741;28;20075;-83
2023/06/24 11:09:37;;;;;;;20.10;7.40;;;;;;;27.36;48.15;101441.22;5035917;28;20025;-82
2023/06/24 11:12:05;;;;;;;20.73;7.55;;;;;;;27.47;47.86;101453.72;5031431;28;20025;-83
2023/06/24 11:14:34;;;;;;;25.05;8.50;;;;;;;27.35;48.08;101412.66;5038179;28;20065;-82
2023/06/24 11:17:02;;;;;;;28.73;8.45;;;;;;;27.50;48.29;101446.53;5044270;28;20100;-82
2023/06/24 11:19:27;;;;;;;29.60;9.10;;;;;;;27.51;48.20;101447.44;5041991;28;20026;-82
2023/06/24 11:21:53;;;;;;;28.48;9.57;;;;;;;27.53;47.92;101451.00;5046445;28;20029;-82
2023/06/24 11:24:19;;;;;;;32.05;10.02;;;;;;;27.53;47.81;101438.47;5046476;28;20496;-82
2023/06/24 11:26:45;;;;;;;32.58;10.10;;;;;;;27.57;48.00;101436.66;5040819;28;20497;-83
2023/06/24 11:29:11;;;;;;;33.28;10.23;;;;;;;27.59;47.95;101429.50;5031126;28;20128;-80
2023/06/24 11:31:37;;;;;;;34.00;10.82;;;;;;;27.64;47.97;101424.09;5043719;28;20096;-82
2023/06/24 11:34:04;;;;;;;39.05;11.75;;;;;;;27.56;47.86;101414.31;5043802;28;20032;-82
2023/06/24 11:36:30;;;;;;;39.60;11.90;;;;;;;27.47;47.73;101392.88;5062726;28;20405;-82
2023/06/24 11:38:55;;;;;;;41.50;11.82;;;;;;;27.61;47.88;101406.22;5039625;28;20081;-81
2023/06/24 11:41:23;;;;;;;34.22;11.50;;;;;;;27.58;47.52;101404.47;5053706;28;20434;-82